Time;durP1;ratioP1;P1;durP2;ratioP2;P2;SDS_P1;SDS_P2;PMS_P1;PMS_P2;Temp;Humidity;BMP_temperature;BMP_pressure;BME280_temperature;BME280_humidity;BME280_pressure;Samples;Min_cycle;Max_cycle;Signal;HPM_P1;HPM_P2
2021/12/22 00:01:15;;;;;;;1.15;1.10;;;;;;;-12.00;89.18;101220.94;5049318;28;20629;-73
2021/12/22 00:03:46;;;;;;;2.03;1.20;;;;;;;-11.98;89.26;101216.38;5047392;28;20037;-73
2021/12/22 00:06:13;;;;;;;1.02;0.93;;;;;;;-11.97;89.21;101220.72;5053730;28;20055;-73
2021/12/22 00:08:39;;;;;;;3.33;1.42;;;;;;;-11.94;89.13;101223.13;5045971;28;20033;-73
2021/12/22 00:11:05;;;;;;;0.45;0.45;;;;;;;-11.94;89.36;101223.97;5048799;28;20037;-73
2021/12/22 00:13:30;;;;;;;1.20;1.05;;;;;;;-11.93;89.20;101223.00;5055876;28;20040;-73
2021/12/22 00:15:56;;;;;;;0.90;0.88;;;;;;;-11.91;89.32;101226.34;5054062;28;20074;-73
2021/12/22 00:18:22;;;;;;;0.60;0.60;;;;;;;-11.89;89.25;101227.06;5059147;28;20055;-73
2021/12/22 00:20:47;;;;;;;0.80;0.80;;;;;;;-11.87;89.26;101225.13;5055037;28;20080;-73
2021/12/22 00:23:13;;;;;;;1.73;1.20;;;;;;;-11.87;89.18;101219.84;5057355;28;20041;-73
2021/12/22 00:25:38;;;;;;;2.53;1.35;;;;;;;-11.87;89.60;101213.72;5061808;28;20075;-73
2021/12/22 00:28:04;;;;;;;1.45;1.35;;;;;;;-11.89;89.54;101221.78;5062353;28;20124;-73
2021/12/22 00:30:30;;;;;;;4.82;1.55;;;;;;;-11.91;89.57;101229.00;5060404;28;20073;-73
2021/12/22 00:33:02;;;;;;;3.22;1.83;;;;;;;-11.94;89.51;101225.75;5064976;28;20029;-73
2021/12/22 00:35:37;;;;;;;1.00;0.95;;;;;;;-11.97;89.50;101228.66;5061780;28;20037;-73
2021/12/22 00:38:03;;;;;;;3.08;1.88;;;;;;;-12.00;89.45;101223.59;5037459;28;20060;-73
2021/12/22 00:40:29;;;;;;;1.92;1.42;;;;;;;-12.02;89.49;101230.81;5058901;28;20040;-73
2021/12/22 00:42:55;;;;;;;2.60;1.58;;;;;;;-12.05;89.46;101228.41;5044326;28;20040;-73
2021/12/22 00:45:23;;;;;;;3.28;1.65;;;;;;;-12.08;89.26;101229.50;5034210;28;20061;-73
2021/12/22 00:47:49;;;;;;;2.40;1.48;;;;;;;-12.09;89.32;101229.63;5047713;28;20040;-73
2021/12/22 00:50:15;;;;;;;1.95;1.25;;;;;;;-12.14;89.17;101235.28;5036123;28;20029;-73
2021/12/22 00:52:41;;;;;;;2.97;1.52;;;;;;;-12.16;89.25;101229.25;5032911;28;20132;-74
2021/12/22 00:55:07;;;;;;;5.38;2.55;;;;;;;-12.15;89.30;101235.38;5053948;28;20048;-73
2021/12/22 00:57:34;;;;;;;3.28;2.45;;;;;;;-12.15;89.31;101233.56;5064196;28;20045;-73
2021/12/22 01:00:00;;;;;;;5.72;2.75;;;;;;;-12.14;89.30;101240.56;5038736;28;20051;-73
2021/12/22 01:02:26;;;;;;;2.47;2.22;;;;;;;-12.11;88.96;101232.38;5038287;28;20049;-73
2021/12/22 01:04:51;;;;;;;4.00;2.00;;;;;;;-12.10;89.25;101242.00;5047618;28;20048;-73
2021/12/22 01:07:17;;;;;;;4.35;2.33;;;;;;;-12.08;89.05;101232.13;5059502;28;20047;-73
2021/12/22 01:09:43;;;;;;;3.47;2.17;;;;;;;-12.05;89.13;101237.19;5046560;28;20553;-72
2021/12/22 01:12:09;;;;;;;3.72;1.83;;;;;;;-12.03;89.11;101240.53;5038407;28;20557;-73
2021/12/22 01:14:35;;;;;;;2.65;2.08;;;;;;;-12.05;89.06;101231.06;5033997;28;20065;-73
2021/12/22 01:17:02;;;;;;;2.88;1.60;;;;;;;-12.08;89.15;101252.47;5050625;28;20049;-73
2021/12/22 01:19:38;;;;;;;2.85;1.70;;;;;;;-12.09;88.97;101245.50;5037969;28;20065;-72
2021/12/22 01:24:48;;;;;;;3.42;1.83;;;;;;;-12.14;88.93;101237.09;5033890;28;20042;-73
2021/12/22 01:27:20;;;;;;;2.05;1.77;;;;;;;-12.17;88.84;101259.31;5047091;28;20048;-73
2021/12/22 01:29:45;;;;;;;2.92;1.55;;;;;;;-12.19;88.98;101256.78;5032952;28;20041;-73
2021/12/22 01:32:13;;;;;;;2.80;1.60;;;;;;;-12.21;88.77;101263.16;5046505;28;20046;-73
2021/12/22 01:34:38;;;;;;;2.13;1.50;;;;;;;-12.27;88.87;101258.34;5044653;28;20033;-73
2021/12/22 01:37:04;;;;;;;3.55;2.03;;;;;;;-12.31;88.77;101257.75;5042611;28;20049;-73
2021/12/22 01:39:30;;;;;;;3.90;1.77;;;;;;;-12.33;88.78;101256.16;5037164;28;20065;-73
2021/12/22 01:41:56;;;;;;;3.60;1.90;;;;;;;-12.38;88.73;101256.53;5037559;28;20038;-73
2021/12/22 01:44:33;;;;;;;2.35;1.60;;;;;;;-12.44;88.65;101264.94;5039945;28;20043;-73
2021/12/22 01:49:50;;;;;;;2.75;1.80;;;;;;;-12.50;88.46;101257.47;5042688;28;20109;-73
2021/12/22 01:52:18;;;;;;;4.20;2.17;;;;;;;-12.54;88.54;101264.78;5041225;28;20052;-73
2021/12/22 01:55:04;;;;;;;4.78;1.60;;;;;;;-12.57;88.39;101259.75;5041881;28;20568;-73
2021/12/22 01:57:32;;;;;;;3.55;2.17;;;;;;;-12.60;88.30;101269.72;5039900;28;20029;-73
2021/12/22 02:00:00;;;;;;;3.47;2.20;;;;;;;-12.65;88.21;101259.50;5039917;28;20037;-73
2021/12/22 02:02:26;;;;;;;2.75;2.05;;;;;;;-12.68;88.22;101261.50;5040668;28;20475;-73
2021/12/22 02:04:51;;;;;;;3.65;2.03;;;;;;;-12.69;88.23;101259.81;5041057;28;20037;-73
2021/12/22 02:07:17;;;;;;;4.43;1.98;;;;;;;-12.71;88.23;101265.22;5042219;28;20507;-73
2021/12/22 02:12:17;;;;;;;3.20;2.00;;;;;;;-12.79;88.19;101244.69;5039805;28;20132;-73
2021/12/22 02:14:45;;;;;;;2.92;1.92;;;;;;;-12.82;88.11;101254.66;5040682;28;20404;-73
2021/12/22 02:17:12;;;;;;;4.88;2.30;;;;;;;-12.83;88.06;101251.16;5038793;28;20041;-73
2021/12/22 02:19:46;;;;;;;3.38;2.35;;;;;;;-12.87;87.85;101251.50;5041927;28;20110;-73
2021/12/22 02:22:15;;;;;;;2.67;2.22;;;;;;;-12.87;87.97;101256.78;5039665;28;20037;-73
2021/12/22 02:24:56;;;;;;;4.43;2.20;;;;;;;-12.86;87.87;101250.53;5039513;28;20075;-73
2021/12/22 02:27:34;;;;;;;3.25;2.17;;;;;;;-12.85;87.85;101257.50;5040053;28;20037;-73
2021/12/22 02:30:03;;;;;;;2.88;2.10;;;;;;;-12.87;87.95;101257.63;5041637;28;20818;-73
2021/12/22 02:35:01;;;;;;;3.70;2.10;;;;;;;-12.85;87.87;101265.41;5039328;28;19927;-73
2021/12/22 02:37:26;;;;;;;2.72;2.15;;;;;;;-12.85;87.87;101265.41;5042133;28;20107;-73
2021/12/22 02:39:59;;;;;;;3.22;1.90;;;;;;;-12.86;87.91;101261.94;5042988;28;20037;-73
2021/12/22 02:42:29;;;;;;;2.95;2.20;;;;;;;-12.89;87.89;101261.31;5040461;28;20504;-73
2021/12/22 02:44:55;;;;;;;4.43;2.63;;;;;;;-12.93;87.84;101267.81;5040036;28;20033;-73
2021/12/22 02:47:23;;;;;;;3.10;2.22;;;;;;;-12.96;88.14;101270.69;5040155;28;20094;-73
2021/12/22 02:49:49;;;;;;;3.97;2.72;;;;;;;-12.95;88.09;101269.72;5038668;28;20099;-73
2021/12/22 02:52:16;;;;;;;3.83;2.78;;;;;;;-13.00;88.00;101267.44;5030306;28;20077;-73
2021/12/22 02:54:47;;;;;;;4.25;2.78;;;;;;;-13.00;87.83;101269.22;5039860;28;20041;-73
2021/12/22 02:57:30;;;;;;;5.15;3.03;;;;;;;-13.03;87.92;101272.06;5021751;28;20454;-73
2021/12/22 03:03:08;;;;;;;6.28;3.50;;;;;;;-13.07;87.94;101274.09;5040641;28;20041;-73
2021/12/22 03:05:28;;;;;;;5.97;3.45;;;;;;;-13.07;88.03;101279.41;5037465;28;20067;-73
2021/12/22 03:07:54;;;;;;;5.80;3.50;;;;;;;-13.06;87.97;101272.31;5030864;28;20111;-73
2021/12/22 03:10:20;;;;;;;11.05;3.78;;;;;;;-13.10;87.85;101280.47;5037981;28;20613;-73
2021/12/22 03:12:51;;;;;;;8.95;4.75;;;;;;;-13.18;87.88;101272.31;5038264;28;20036;-73
2021/12/22 03:15:18;;;;;;;10.93;5.03;;;;;;;-13.28;87.94;101283.66;5039252;28;20099;-73
2021/12/22 03:17:43;;;;;;;15.05;4.95;;;;;;;-13.39;87.90;101279.13;5037928;28;20037;-73
2021/12/22 03:20:12;;;;;;;10.63;4.50;;;;;;;-13.44;87.76;101282.13;5030447;28;20041;-73
2021/12/22 03:22:37;;;;;;;14.43;4.53;;;;;;;-13.47;87.78;101286.78;5038228;28;20029;-73
2021/12/22 03:25:14;;;;;;;10.45;4.10;;;;;;;-13.56;87.81;101279.53;5022001;28;20042;-73
2021/12/22 03:27:41;;;;;;;7.28;3.80;;;;;;;-13.59;87.69;101283.22;5029502;28;20037;-73
2021/12/22 03:30:08;;;;;;;9.65;3.80;;;;;;;-13.61;87.51;101282.50;5040246;28;20046;-73
2021/12/22 03:32:33;;;;;;;6.10;3.88;;;;;;;-13.65;87.60;101282.84;5038590;28;20037;-73
2021/12/22 03:34:59;;;;;;;8.27;3.78;;;;;;;-13.64;87.52;101282.72;5041649;28;20522;-73
2021/12/22 03:37:25;;;;;;;10.00;4.20;;;;;;;-13.65;87.46;101281.03;5038327;28;20120;-73
2021/12/22 03:39:50;;;;;;;6.93;4.00;;;;;;;-13.68;87.63;101283.91;5039380;28;20124;-73
2021/12/22 03:42:16;;;;;;;11.52;4.68;;;;;;;-13.69;87.55;101271.66;5038195;28;20033;-73
2021/12/22 03:44:41;;;;;;;13.52;4.50;;;;;;;-13.71;87.56;101284.09;5027794;28;20037;-73
2021/12/22 03:47:07;;;;;;;7.97;3.95;;;;;;;-13.71;87.54;101284.97;5037468;28;20500;-73
2021/12/22 03:49:34;;;;;;;7.80;4.13;;;;;;;-13.71;87.60;101279.69;5037642;28;20711;-73
2021/12/22 03:51:59;;;;;;;7.40;3.00;;;;;;;-13.69;87.73;101279.56;5039976;28;20045;-74
2021/12/22 03:54:25;;;;;;;7.20;2.97;;;;;;;-13.67;87.44;101284.75;5036643;28;20082;-74
2021/12/22 03:57:16;;;;;;;6.07;2.88;;;;;;;-13.64;87.58;101284.53;5038724;28;20068;-73
2021/12/22 03:59:41;;;;;;;6.78;2.80;;;;;;;-13.60;87.44;101285.97;5036433;28;20124;-73
2021/12/22 04:02:07;;;;;;;6.18;2.97;;;;;;;-13.59;87.61;101291.13;5039432;28;20052;-73
2021/12/22 04:04:32;;;;;;;4.18;2.45;;;;;;;-13.58;87.60;101284.91;5038118;28;20121;-73
2021/12/22 04:06:58;;;;;;;6.55;2.47;;;;;;;-13.57;87.41;101286.59;5037983;28;20029;-73
2021/12/22 04:09:26;;;;;;;7.90;2.40;;;;;;;-13.54;87.51;101291.66;5038248;28;20140;-73
2021/12/22 04:11:52;;;;;;;3.88;1.83;;;;;;;-13.51;87.58;101290.59;5036546;28;20062;-75
2021/12/22 04:14:17;;;;;;;4.78;2.25;;;;;;;-13.46;87.61;101289.31;5038020;28;20128;-74
2021/12/22 04:16:43;;;;;;;5.47;2.83;;;;;;;-13.42;87.69;101297.84;5039314;28;20049;-74
2021/12/22 04:19:09;;;;;;;8.48;2.70;;;;;;;-13.39;87.61;101294.97;5034358;28;20079;-74
2021/12/22 04:21:34;;;;;;;4.28;2.53;;;;;;;-13.37;87.66;101290.44;5039216;28;20541;-74
2021/12/22 04:24:01;;;;;;;7.53;3.42;;;;;;;-13.36;87.92;101299.19;5040383;28;20033;-74
2021/12/22 04:26:27;;;;;;;13.63;3.28;;;;;;;-13.40;87.84;101303.84;5035400;28;20044;-73
2021/12/22 04:28:53;;;;;;;2.95;2.55;;;;;;;-13.46;87.95;101304.31;5027587;28;20131;-72
2021/12/22 04:31:19;;;;;;;7.63;2.70;;;;;;;-13.52;87.86;101302.97;5036778;28;20179;-72
2021/12/22 04:33:45;;;;;;;4.43;3.08;;;;;;;-13.54;88.02;101301.34;5032317;28;20111;-73
2021/12/22 04:36:10;;;;;;;6.78;3.20;;;;;;;-13.57;87.97;101302.44;5030348;28;20033;-72
2021/12/22 04:38:36;;;;;;;4.22;2.83;;;;;;;-13.57;87.85;101296.31;5029029;28;20037;-72
2021/12/22 04:41:02;;;;;;;4.03;3.38;;;;;;;-13.60;87.79;101289.47;5038074;28;20457;-72
2021/12/22 04:43:28;;;;;;;4.75;2.45;;;;;;;-13.55;87.97;101295.25;5041739;28;20075;-72
2021/12/22 04:45:53;;;;;;;5.57;2.72;;;;;;;-13.49;88.02;101289.53;5037220;28;20091;-72
2021/12/22 04:48:19;;;;;;;4.05;2.72;;;;;;;-13.43;87.96;101291.72;5034909;28;20033;-72
2021/12/22 04:50:45;;;;;;;3.85;2.03;;;;;;;-13.39;88.01;101289.69;5037402;28;20505;-72
2021/12/22 04:53:20;;;;;;;3.55;2.22;;;;;;;-13.36;88.15;101292.16;5021230;28;20069;-73
2021/12/22 04:55:45;;;;;;;5.47;2.75;;;;;;;-13.35;88.25;101291.19;5028057;28;20033;-72
2021/12/22 04:58:11;;;;;;;4.60;2.33;;;;;;;-13.35;88.31;101296.47;5038785;28;20103;-73
2021/12/22 05:00:38;;;;;;;5.70;3.08;;;;;;;-13.35;88.40;101293.81;5036252;28;20034;-73
2021/12/22 05:03:03;;;;;;;7.05;2.70;;;;;;;-13.37;88.35;101302.78;5037865;28;20033;-73
2021/12/22 05:05:29;;;;;;;4.65;2.58;;;;;;;-13.37;88.49;101298.34;5044910;28;20124;-73
2021/12/22 05:07:55;;;;;;;6.22;2.85;;;;;;;-13.33;88.41;101299.84;5034733;28;20041;-73
2021/12/22 05:10:21;;;;;;;6.22;2.97;;;;;;;-13.28;88.25;101297.69;5003858;28;20037;-73
2021/12/22 05:12:47;;;;;;;7.60;3.38;;;;;;;-13.25;88.46;101302.75;5035900;28;20041;-73
2021/12/22 05:15:17;;;;;;;5.97;3.25;;;;;;;-13.20;88.33;101305.88;5028242;28;20042;-73
2021/12/22 05:20:10;;;;;;;6.65;3.08;;;;;;;-13.09;88.64;101305.91;5035390;28;20048;-72
2021/12/22 05:22:36;;;;;;;7.22;2.92;;;;;;;-13.03;88.52;101319.63;5045565;28;20044;-73
2021/12/22 05:25:03;;;;;;;5.60;2.20;;;;;;;-12.99;88.74;101310.53;5048143;28;20037;-72
2021/12/22 05:27:29;;;;;;;3.67;2.53;;;;;;;-12.93;88.71;101310.91;5036808;28;20397;-72
2021/12/22 05:29:56;;;;;;;4.57;2.53;;;;;;;-12.90;88.71;101309.84;5044066;28;20051;-71
2021/12/22 05:32:25;;;;;;;4.20;3.00;;;;;;;-12.87;88.69;101318.38;5034360;28;20083;-72
2021/12/22 05:34:52;;;;;;;3.53;2.15;;;;;;;-12.85;88.78;101319.09;5035597;28;20044;-72
2021/12/22 05:37:18;;;;;;;6.03;3.03;;;;;;;-12.84;88.94;101314.66;5045467;28;20069;-72
2021/12/22 05:39:49;;;;;;;6.78;2.78;;;;;;;-12.86;88.80;101316.56;5035347;28;20116;-72
2021/12/22 05:42:15;;;;;;;4.97;2.17;;;;;;;-12.86;88.67;101311.28;5054085;28;20457;-72
2021/12/22 05:44:42;;;;;;;4.53;2.58;;;;;;;-12.88;88.71;101313.22;5048439;28;20033;-74
2021/12/22 05:47:08;;;;;;;3.28;1.92;;;;;;;-12.88;88.82;101310.56;5038933;28;20041;-71
2021/12/22 05:49:34;;;;;;;4.00;2.60;;;;;;;-12.88;88.56;101315.84;5048011;28;20518;-71
2021/12/22 05:51:59;;;;;;;5.47;2.25;;;;;;;-12.91;88.36;101316.91;5049911;28;20072;-71
2021/12/22 05:54:25;;;;;;;7.10;3.13;;;;;;;-12.93;88.57;101312.72;5050000;28;20098;-71
2021/12/22 05:56:51;;;;;;;4.43;1.80;;;;;;;-12.94;88.52;101319.78;5053615;28;20064;-73
2021/12/22 05:59:16;;;;;;;3.80;1.92;;;;;;;-12.93;88.35;101320.63;5040270;28;20467;-72
2021/12/22 06:01:42;;;;;;;6.22;1.92;;;;;;;-12.93;88.33;101331.22;5071811;28;20135;-72
2021/12/22 06:04:07;;;;;;;3.25;2.08;;;;;;;-12.95;88.52;101338.41;5049114;28;20033;-72
2021/12/22 06:06:33;;;;;;;1.95;1.73;;;;;;;-12.99;88.40;101339.59;5033533;28;20072;-71
2021/12/22 06:08:58;;;;;;;3.60;1.85;;;;;;;-13.02;88.20;101338.00;5036844;28;20136;-71
2021/12/22 06:11:24;;;;;;;5.80;2.03;;;;;;;-13.06;88.25;101343.63;5066387;28;20506;-71
2021/12/22 06:13:50;;;;;;;4.57;2.38;;;;;;;-13.09;88.13;101342.88;5040165;28;20514;-71
2021/12/22 06:16:15;;;;;;;4.57;2.00;;;;;;;-13.11;88.14;101347.44;5070136;28;20143;-72
2021/12/22 06:18:46;;;;;;;5.18;2.45;;;;;;;-13.12;88.22;101345.75;5058990;28;20040;-73
2021/12/22 06:21:13;;;;;;;9.38;3.72;;;;;;;-13.16;88.34;101341.66;5045800;28;20518;-71
2021/12/22 06:23:39;;;;;;;7.00;2.78;;;;;;;-13.19;87.99;101341.94;5028285;28;20037;-71
2021/12/22 06:26:05;;;;;;;4.60;2.75;;;;;;;-13.21;88.05;101343.81;5057726;28;20040;-71
2021/12/22 06:28:31;;;;;;;9.00;2.53;;;;;;;-13.26;87.98;101345.09;5060622;28;20070;-70
2021/12/22 06:30:57;;;;;;;5.32;2.28;;;;;;;-13.29;88.11;101347.97;5066073;28;20033;-71
2021/12/22 06:33:22;;;;;;;3.33;2.40;;;;;;;-13.33;88.14;101338.59;5055512;28;20048;-71
2021/12/22 06:35:48;;;;;;;4.18;2.78;;;;;;;-13.36;87.95;101336.16;5067278;28;20033;-70
2021/12/22 06:38:15;;;;;;;3.30;2.38;;;;;;;-13.42;87.90;101351.47;5060274;28;20038;-70
2021/12/22 06:40:41;;;;;;;5.38;3.08;;;;;;;-13.41;87.78;101339.97;5058573;28;20087;-71
2021/12/22 06:43:06;;;;;;;5.50;3.35;;;;;;;-13.42;88.04;101348.84;5066298;28;20033;-71
2021/12/22 06:45:32;;;;;;;6.53;3.13;;;;;;;-13.44;88.07;101355.19;5053915;28;20037;-71
2021/12/22 06:47:58;;;;;;;4.90;2.40;;;;;;;-13.47;88.03;101340.41;5060633;28;20043;-71
2021/12/22 06:50:24;;;;;;;6.18;2.70;;;;;;;-13.48;87.98;101354.56;5059666;28;20041;-71
2021/12/22 06:52:49;;;;;;;3.97;2.78;;;;;;;-13.49;87.86;101359.97;5058396;28;20380;-70
2021/12/22 06:55:15;;;;;;;6.07;3.03;;;;;;;-13.46;87.99;101365.00;5068107;28;20044;-71
2021/12/22 06:57:40;;;;;;;5.13;2.45;;;;;;;-13.44;87.94;101371.03;5055021;28;20490;-70
2021/12/22 07:00:08;;;;;;;8.02;3.55;;;;;;;-13.43;88.07;101372.72;5063182;28;20167;-70
2021/12/22 07:02:37;;;;;;;5.82;3.67;;;;;;;-13.44;87.83;101376.31;5061295;28;20127;-70
2021/12/22 07:05:09;;;;;;;10.15;4.40;;;;;;;-13.44;88.12;101369.22;5054735;28;20037;-70
2021/12/22 07:07:35;;;;;;;8.10;4.38;;;;;;;-13.43;87.92;101370.06;5056403;28;20098;-71
2021/12/22 07:10:01;;;;;;;14.15;5.22;;;;;;;-13.43;87.91;101364.78;5064049;28;20049;-71
2021/12/22 07:12:26;;;;;;;10.02;4.72;;;;;;;-13.44;88.03;101360.47;5061342;28;20036;-71
2021/12/22 07:14:52;;;;;;;9.52;4.55;;;;;;;-13.47;88.12;101358.88;5058217;28;20206;-71
2021/12/22 07:17:18;;;;;;;7.80;4.68;;;;;;;-13.46;88.04;101363.22;5028775;28;1117183;-71
2021/12/22 07:19:43;;;;;;;6.40;4.03;;;;;;;-13.44;87.92;101368.38;5055133;28;20028;-71
2021/12/22 07:22:09;;;;;;;6.88;3.25;;;;;;;-13.42;88.04;101371.75;5063544;28;20126;-71
2021/12/22 07:24:35;;;;;;;4.97;3.25;;;;;;;-13.38;88.22;101360.00;5045703;28;20098;-71
2021/12/22 07:27:01;;;;;;;6.20;3.42;;;;;;;-13.33;88.05;101372.91;5051731;28;20037;-70
2021/12/22 07:29:26;;;;;;;9.82;3.63;;;;;;;-13.27;88.04;101362.75;5067267;28;20090;-71
2021/12/22 07:31:52;;;;;;;7.43;3.83;;;;;;;-13.18;88.16;101363.91;5039236;28;20051;-70
2021/12/22 07:34:38;;;;;;;9.55;3.13;;;;;;;-13.15;88.28;101367.13;5060624;28;20453;-71
2021/12/22 07:37:19;;;;;;;6.03;3.10;;;;;;;-13.07;88.08;101373.63;5055794;28;20041;-72
2021/12/22 07:39:45;;;;;;;6.68;3.67;;;;;;;-13.03;88.20;101373.28;5022734;28;20049;-72
2021/12/22 07:42:10;;;;;;;10.65;4.05;;;;;;;-13.01;88.25;101374.03;5062636;28;20499;-72
2021/12/22 07:44:36;;;;;;;5.13;3.47;;;;;;;-12.99;88.30;101374.78;5063221;28;20044;-70
2021/12/22 07:47:01;;;;;;;4.53;2.88;;;;;;;-12.99;88.15;101382.69;5057137;28;20514;-72
2021/12/22 07:49:27;;;;;;;7.35;3.67;;;;;;;-12.98;88.36;101384.38;5067076;28;20114;-72
2021/12/22 07:51:53;;;;;;;5.28;4.20;;;;;;;-12.96;88.09;101384.28;5039235;28;20046;-72
2021/12/22 07:54:18;;;;;;;6.10;3.30;;;;;;;-12.92;88.13;101386.56;5059711;28;20483;-72
2021/12/22 07:56:44;;;;;;;12.43;4.35;;;;;;;-12.88;88.27;101387.19;5026002;28;20458;-72
2021/12/22 07:59:09;;;;;;;8.15;4.28;;;;;;;-12.84;88.25;101394.78;5042162;28;20037;-72
2021/12/22 08:01:35;;;;;;;8.05;3.38;;;;;;;-12.79;88.17;101382.09;5065661;28;20048;-72
2021/12/22 08:04:01;;;;;;;7.07;3.03;;;;;;;-12.69;88.17;101391.97;5045865;28;20038;-72
2021/12/22 08:06:27;;;;;;;4.43;2.92;;;;;;;-12.32;87.94;101390.06;5051464;28;20041;-70
2021/12/22 08:08:52;;;;;;;6.65;3.88;;;;;;;-11.62;87.54;101387.28;5054122;28;20036;-70
2021/12/22 08:11:18;;;;;;;16.77;4.75;;;;;;;-11.07;86.89;101377.63;5063774;28;20501;-72
2021/12/22 08:13:44;;;;;;;12.45;4.80;;;;;;;-10.47;86.54;101378.84;5055373;28;20064;-71
2021/12/22 08:16:09;;;;;;;6.88;4.13;;;;;;;-10.14;86.12;101377.81;5063403;28;20110;-71
2021/12/22 08:18:35;;;;;;;6.28;4.15;;;;;;;-9.80;85.79;101373.97;5062308;28;20131;-71
2021/12/22 08:21:01;;;;;;;6.07;3.72;;;;;;;-9.42;84.94;101373.31;5055177;28;20041;-70
2021/12/22 08:23:26;;;;;;;9.88;3.40;;;;;;;-9.42;84.36;101377.78;5067404;28;20086;-71
2021/12/22 08:25:52;;;;;;;4.93;2.97;;;;;;;-9.74;84.21;101385.88;5056237;28;20502;-71
2021/12/22 08:28:18;;;;;;;4.97;3.22;;;;;;;-10.02;85.08;101382.09;5062224;28;20029;-71
2021/12/22 08:30:44;;;;;;;6.90;3.10;;;;;;;-10.31;85.21;101381.09;5051031;28;20036;-71
2021/12/22 08:33:19;;;;;;;4.93;3.20;;;;;;;-10.57;84.77;101383.25;5052694;28;20041;-72
2021/12/22 08:38:53;;;;;;;4.22;3.70;;;;;;;-10.85;85.07;101385.50;5056979;28;20043;-72
2021/12/22 08:41:33;;;;;;;3.00;2.42;;;;;;;-10.89;85.37;101393.84;5064727;28;20591;-71
2021/12/22 08:44:02;;;;;;;3.00;2.30;;;;;;;-10.99;85.40;101383.97;5056149;28;20040;-72
2021/12/22 08:46:28;;;;;;;3.20;2.10;;;;;;;-11.06;85.38;101385.44;5059378;28;20033;-72
2021/12/22 08:48:54;;;;;;;3.63;1.98;;;;;;;-11.11;85.38;101384.09;5064546;28;20063;-72
2021/12/22 08:51:21;;;;;;;6.97;2.92;;;;;;;-11.12;85.47;101379.78;5052789;28;20040;-72
2021/12/22 08:53:47;;;;;;;6.40;3.25;;;;;;;-11.13;85.71;101386.88;5065059;28;20036;-72
2021/12/22 08:56:12;;;;;;;5.72;3.90;;;;;;;-11.13;85.59;101383.38;5057597;28;20040;-71
2021/12/22 08:58:38;;;;;;;6.38;2.97;;;;;;;-11.15;85.79;101380.88;5058978;28;20562;-71
2021/12/22 09:01:04;;;;;;;6.32;3.47;;;;;;;-11.15;85.73;101386.16;5062018;28;20044;-71
2021/12/22 09:03:30;;;;;;;6.07;3.45;;;;;;;-11.15;85.94;101380.03;5048111;28;20043;-71
2021/12/22 09:05:55;;;;;;;11.18;3.30;;;;;;;-11.14;85.69;101384.34;5045429;28;20036;-71
2021/12/22 09:08:21;;;;;;;8.27;2.30;;;;;;;-11.15;85.89;101382.66;5056500;28;20028;-71
2021/12/22 09:10:47;;;;;;;3.85;2.03;;;;;;;-11.13;85.94;101380.75;5049351;28;20084;-71
2021/12/22 09:13:13;;;;;;;5.43;2.88;;;;;;;-11.09;85.85;101387.50;5067691;28;20036;-70
2021/12/22 09:15:39;;;;;;;4.03;2.63;;;;;;;-11.06;86.13;101381.94;5047664;28;20072;-71
2021/12/22 09:18:05;;;;;;;10.45;4.50;;;;;;;-11.02;85.80;101386.03;5054976;28;20090;-70
2021/12/22 09:20:31;;;;;;;7.15;3.88;;;;;;;-11.03;85.96;101385.19;5058495;28;20565;-70
2021/12/22 09:22:57;;;;;;;8.80;3.50;;;;;;;-11.00;85.94;101387.59;5064538;28;20036;-71
2021/12/22 09:25:23;;;;;;;7.20;3.83;;;;;;;-10.97;86.15;101384.69;5053910;28;20397;-71
2021/12/22 09:27:48;;;;;;;6.72;3.72;;;;;;;-10.94;86.19;101394.19;5057699;28;20040;-72
2021/12/22 09:30:14;;;;;;;6.60;3.65;;;;;;;-10.93;86.04;101382.66;5044809;28;20065;-72
2021/12/22 09:32:40;;;;;;;6.03;3.88;;;;;;;-10.96;86.14;101385.53;5052901;28;20037;-72
2021/12/22 09:35:06;;;;;;;6.90;4.28;;;;;;;-10.96;86.26;101396.97;5044434;28;20514;-72
2021/12/22 09:37:32;;;;;;;8.07;4.65;;;;;;;-10.96;85.86;101396.13;5038009;28;20037;-72
2021/12/22 09:39:58;;;;;;;7.00;4.47;;;;;;;-10.98;86.39;101398.06;5043622;28;20086;-72
2021/12/22 09:42:23;;;;;;;7.05;4.50;;;;;;;-11.01;86.13;101396.50;5050155;28;20063;-70
2021/12/22 09:44:50;;;;;;;7.68;4.45;;;;;;;-11.06;86.08;101389.91;5061990;28;20041;-72
2021/12/22 09:47:25;;;;;;;7.80;3.97;;;;;;;-11.09;86.12;101392.78;5069270;28;20040;-71
2021/12/22 09:52:27;;;;;;;9.02;4.80;;;;;;;-11.10;85.72;101394.59;5051313;28;20582;-71
2021/12/22 09:54:55;;;;;;;8.82;4.88;;;;;;;-11.08;85.85;101384.72;5043062;28;20037;-71
2021/12/22 09:57:24;;;;;;;7.97;4.93;;;;;;;-11.03;86.00;101387.00;5039975;28;20069;-71
2021/12/22 09:59:51;;;;;;;7.10;4.95;;;;;;;-10.99;86.14;101389.25;5058371;28;20493;-70
2021/12/22 10:02:19;;;;;;;6.80;4.28;;;;;;;-10.98;86.17;101383.00;5032124;28;20048;-71
2021/12/22 10:04:45;;;;;;;9.13;4.57;;;;;;;-10.94;86.36;101383.59;5057891;28;20177;-71
2021/12/22 10:07:17;;;;;;;7.13;4.43;;;;;;;-10.91;86.36;101388.66;5049754;28;20083;-71
2021/12/22 10:09:44;;;;;;;6.65;4.50;;;;;;;-10.90;86.01;101398.31;5040206;28;20028;-71
2021/12/22 10:12:17;;;;;;;8.40;4.15;;;;;;;-10.91;86.20;101386.00;5064180;28;20037;-71
2021/12/22 10:14:57;;;;;;;8.88;5.05;;;;;;;-10.93;86.19;101390.59;5061417;28;20049;-71
2021/12/22 10:17:32;;;;;;;6.65;4.43;;;;;;;-10.93;86.27;101390.59;5039123;28;20041;-71
2021/12/22 10:19:59;;;;;;;9.88;4.53;;;;;;;-10.91;86.25;101383.38;5052979;28;20084;-71
2021/12/22 10:22:30;;;;;;;7.28;4.75;;;;;;;-10.90;86.43;101384.22;5053073;28;20032;-71
2021/12/22 10:25:08;;;;;;;8.07;5.75;;;;;;;-10.89;86.26;101392.03;5041393;28;20045;-71
2021/12/22 10:27:34;;;;;;;10.93;5.22;;;;;;;-10.89;86.03;101393.84;5055036;28;20044;-72
2021/12/22 10:30:00;;;;;;;10.93;4.88;;;;;;;-10.86;86.13;101393.59;5065381;28;20090;-71
2021/12/22 10:32:25;;;;;;;7.93;5.43;;;;;;;-10.88;85.79;101380.47;5061825;28;20076;-71
2021/12/22 10:35:03;;;;;;;6.97;4.53;;;;;;;-10.85;85.89;101384.66;5058576;28;20060;-71
2021/12/22 10:37:49;;;;;;;8.15;4.25;;;;;;;-10.83;85.86;101385.38;5066986;28;20046;-71
2021/12/22 10:40:46;;;;;;;7.80;3.63;;;;;;;-10.87;85.79;101374.19;5048198;28;20056;-72
2021/12/22 10:43:24;;;;;;;8.57;4.30;;;;;;;-10.92;85.87;101375.53;5056248;28;20063;-72
2021/12/22 10:45:52;;;;;;;9.68;3.75;;;;;;;-10.95;85.99;101384.56;5042784;28;20367;-72
2021/12/22 10:51:09;;;;;;;8.00;3.63;;;;;;;-11.02;85.56;101386.88;5040066;28;20037;-72
2021/12/22 10:53:47;;;;;;;9.48;4.93;;;;;;;-10.99;85.73;101383.97;5051803;28;20128;-72
2021/12/22 10:56:38;;;;;;;9.95;4.25;;;;;;;-10.95;85.62;101379.25;5061569;28;20037;-72
2021/12/22 10:59:07;;;;;;;6.50;2.88;;;;;;;-10.94;85.68;101375.63;5063214;28;20040;-72
2021/12/22 11:01:57;;;;;;;5.53;2.90;;;;;;;-10.91;85.74;101377.22;5051973;28;20041;-72
2021/12/22 11:04:30;;;;;;;6.15;2.92;;;;;;;-10.87;85.57;101373.34;5060898;28;20037;-72
2021/12/22 11:07:04;;;;;;;4.20;2.30;;;;;;;-10.85;85.92;101376.72;5066583;28;20043;-72
2021/12/22 11:09:34;;;;;;;6.28;3.08;;;;;;;-10.84;85.97;101376.59;5055925;28;20573;-72
2021/12/22 11:12:00;;;;;;;6.43;3.65;;;;;;;-10.84;85.88;101383.69;5048814;28;20033;-72
2021/12/22 11:14:36;;;;;;;6.55;3.40;;;;;;;-10.81;86.18;101389.59;5061910;28;20036;-72
2021/12/22 11:17:09;;;;;;;8.02;2.95;;;;;;;-10.79;86.24;101382.34;5070667;28;20052;-72
2021/12/22 11:19:53;;;;;;;7.22;3.38;;;;;;;-10.83;86.11;101380.06;5060885;28;20418;-72
2021/12/22 11:22:24;;;;;;;3.15;2.47;;;;;;;-10.85;85.98;101376.72;5062593;28;20107;-72
2021/12/22 11:24:51;;;;;;;4.95;2.97;;;;;;;-10.88;86.12;101380.47;5064680;28;20072;-72
2021/12/22 11:27:25;;;;;;;4.32;3.30;;;;;;;-10.90;86.13;101363.84;5054685;28;20044;-72
2021/12/22 11:29:54;;;;;;;8.80;3.55;;;;;;;-10.90;85.98;101368.31;5066154;28;20032;-72
2021/12/22 11:32:22;;;;;;;10.15;3.10;;;;;;;-10.91;86.03;101362.16;5061423;28;20036;-72
2021/12/22 11:34:51;;;;;;;5.18;2.78;;;;;;;-10.91;86.01;101372.75;5054381;28;20173;-72
2021/12/22 11:37:17;;;;;;;3.85;2.42;;;;;;;-10.89;86.16;101368.16;5065254;28;20043;-72
2021/12/22 11:39:43;;;;;;;7.82;2.63;;;;;;;-10.90;86.01;101374.44;5054689;28;20036;-72
2021/12/22 11:42:10;;;;;;;3.03;2.00;;;;;;;-10.89;86.27;101367.34;5063268;28;20043;-72
2021/12/22 11:44:38;;;;;;;6.00;2.97;;;;;;;-10.90;86.29;101368.31;5063074;28;20036;-72